Shepley, Wisconsin
Current Conditions -  °F | °C
As of 8:15 PM on Monday 22 Dec 2014 (Local Time) from KAIG Reporting Station
Light Snow Light Snow  
Wind Chill: 20°   Ceiling: 700
Heat Index: 31°   Visibility: 2mi
Dew Point: 30°   Wind: 14mph
Humidity: 97%   Direction: 80°E
Pressure: 29.73"   Gusts: 20mph
Location:  44.8179°N, 89.172°W
Report Text: KAIG 230215Z AUTO 08012G17KT 2SM -SN OVC007 M01/M01 A2973 RMK AO2 T10081012
Loading
Personal Weather Stations






























Interactive Weather Map New forecast layout! Learn more

10-Day Weather Forecast

Advertisements
Track Severe Weather on mobile